sensor_id;sensor_type;location;lat;lon;timestamp;P1;durP1;ratioP1;P2;durP2;ratioP2
5454;SDS011;2750;49.050;9.250;2023-05-08T00:00:06;14.07;;;9.93;;
5454;SDS011;2750;49.050;9.250;2023-05-08T00:05:09;11.60;;;9.67;;
5454;SDS011;2750;49.050;9.250;2023-05-08T00:10:11;10.30;;;9.20;;
5454;SDS011;2750;49.050;9.250;2023-05-08T00:15:12;11.33;;;10.13;;
5454;SDS011;2750;49.050;9.250;2023-05-08T00:20:16;11.83;;;9.43;;
5454;SDS011;2750;49.050;9.250;2023-05-08T00:25:17;11.17;;;9.93;;
5454;SDS011;2750;49.050;9.250;2023-05-08T00:30:19;11.43;;;9.40;;
5454;SDS011;2750;49.050;9.250;2023-05-08T00:35:22;11.47;;;10.23;;
5454;SDS011;2750;49.050;9.250;2023-05-08T00:40:24;11.13;;;10.10;;
5454;SDS011;2750;49.050;9.250;2023-05-08T00:45:26;12.43;;;11.13;;
5454;SDS011;2750;49.050;9.250;2023-05-08T00:50:35;13.53;;;11.40;;
5454;SDS011;2750;49.050;9.250;2023-05-08T00:55:37;12.23;;;10.97;;
5454;SDS011;2750;49.050;9.250;2023-05-08T01:00:39;12.33;;;11.10;;
5454;SDS011;2750;49.050;9.250;2023-05-08T01:05:43;13.90;;;12.10;;
5454;SDS011;2750;49.050;9.250;2023-05-08T01:10:47;14.07;;;12.67;;
5454;SDS011;2750;49.050;9.250;2023-05-08T01:15:59;14.57;;;12.53;;
5454;SDS011;2750;49.050;9.250;2023-05-08T01:21:12;14.30;;;12.33;;
5454;SDS011;2750;49.050;9.250;2023-05-08T01:32:14;13.13;;;11.83;;
5454;SDS011;2750;49.050;9.250;2023-05-08T01:37:21;15.13;;;13.53;;
5454;SDS011;2750;49.050;9.250;2023-05-08T01:42:30;18.00;;;15.87;;
5454;SDS011;2750;49.050;9.250;2023-05-08T01:47:38;24.70;;;18.50;;
5454;SDS011;2750;49.050;9.250;2023-05-08T01:52:42;23.80;;;18.50;;
5454;SDS011;2750;49.050;9.250;2023-05-08T01:57:46;23.53;;;18.17;;
5454;SDS011;2750;49.050;9.250;2023-05-08T02:02:52;21.50;;;17.83;;
5454;SDS011;2750;49.050;9.250;2023-05-08T02:07:55;21.17;;;17.67;;
5454;SDS011;2750;49.050;9.250;2023-05-08T02:12:58;18.97;;;16.77;;
5454;SDS011;2750;49.050;9.250;2023-05-08T02:18:02;16.67;;;14.87;;
5454;SDS011;2750;49.050;9.250;2023-05-08T02:23:07;18.47;;;16.20;;
5454;SDS011;2750;49.050;9.250;2023-05-08T02:28:09;18.37;;;15.40;;
5454;SDS011;2750;49.050;9.250;2023-05-08T02:33:12;20.10;;;16.43;;
5454;SDS011;2750;49.050;9.250;2023-05-08T02:38:16;19.63;;;16.20;;
5454;SDS011;2750;49.050;9.250;2023-05-08T02:43:20;18.10;;;14.67;;
5454;SDS011;2750;49.050;9.250;2023-05-08T02:48:25;20.60;;;15.40;;
5454;SDS011;2750;49.050;9.250;2023-05-08T02:53:33;19.33;;;15.33;;
5454;SDS011;2750;49.050;9.250;2023-05-08T02:58:39;18.50;;;14.47;;
5454;SDS011;2750;49.050;9.250;2023-05-08T03:03:48;23.20;;;17.47;;
5454;SDS011;2750;49.050;9.250;2023-05-08T03:08:53;21.43;;;17.80;;
5454;SDS011;2750;49.050;9.250;2023-05-08T03:14:00;22.73;;;18.10;;
5454;SDS011;2750;49.050;9.250;2023-05-08T03:19:09;21.23;;;16.80;;
5454;SDS011;2750;49.050;9.250;2023-05-08T03:24:16;22.57;;;18.10;;
5454;SDS011;2750;49.050;9.250;2023-05-08T03:29:20;19.83;;;17.10;;
5454;SDS011;2750;49.050;9.250;2023-05-08T03:34:25;19.13;;;17.13;;
5454;SDS011;2750;49.050;9.250;2023-05-08T03:39:27;19.83;;;16.97;;
5454;SDS011;2750;49.050;9.250;2023-05-08T03:44:28;24.13;;;19.27;;
5454;SDS011;2750;49.050;9.250;2023-05-08T03:49:32;25.23;;;19.23;;
5454;SDS011;2750;49.050;9.250;2023-05-08T03:54:35;21.13;;;17.27;;
5454;SDS011;2750;49.050;9.250;2023-05-08T03:59:37;23.27;;;17.70;;
5454;SDS011;2750;49.050;9.250;2023-05-08T04:04:46;18.93;;;16.20;;
5454;SDS011;2750;49.050;9.250;2023-05-08T04:09:53;18.43;;;16.43;;
5454;SDS011;2750;49.050;9.250;2023-05-08T04:15:00;19.40;;;15.63;;
5454;SDS011;2750;49.050;9.250;2023-05-08T04:20:07;18.47;;;15.47;;
5454;SDS011;2750;49.050;9.250;2023-05-08T04:25:12;20.27;;;17.30;;
5454;SDS011;2750;49.050;9.250;2023-05-08T04:30:16;20.90;;;17.60;;
5454;SDS011;2750;49.050;9.250;2023-05-08T04:35:20;22.50;;;17.53;;
5454;SDS011;2750;49.050;9.250;2023-05-08T04:40:21;19.87;;;17.77;;
5454;SDS011;2750;49.050;9.250;2023-05-08T04:45:23;21.20;;;17.47;;
5454;SDS011;2750;49.050;9.250;2023-05-08T04:50:26;20.80;;;17.63;;
5454;SDS011;2750;49.050;9.250;2023-05-08T04:55:27;23.67;;;18.30;;
5454;SDS011;2750;49.050;9.250;2023-05-08T05:00:29;21.60;;;19.07;;
5454;SDS011;2750;49.050;9.250;2023-05-08T05:05:33;22.67;;;19.63;;
5454;SDS011;2750;49.050;9.250;2023-05-08T05:10:36;20.90;;;18.03;;
5454;SDS011;2750;49.050;9.250;2023-05-08T05:15:40;24.50;;;20.47;;
5454;SDS011;2750;49.050;9.250;2023-05-08T05:20:43;20.60;;;18.40;;
5454;SDS011;2750;49.050;9.250;2023-05-08T05:25:45;21.60;;;19.30;;
5454;SDS011;2750;49.050;9.250;2023-05-08T05:30:46;23.20;;;20.73;;
5454;SDS011;2750;49.050;9.250;2023-05-08T05:35:49;23.20;;;20.70;;
5454;SDS011;2750;49.050;9.250;2023-05-08T05:40:51;24.83;;;22.23;;
5454;SDS011;2750;49.050;9.250;2023-05-08T05:45:52;25.00;;;22.07;;
5454;SDS011;2750;49.050;9.250;2023-05-08T05:50:56;25.00;;;22.40;;
5454;SDS011;2750;49.050;9.250;2023-05-08T05:55:57;24.30;;;21.80;;
5454;SDS011;2750;49.050;9.250;2023-05-08T06:00:59;24.83;;;22.20;;
5454;SDS011;2750;49.050;9.250;2023-05-08T06:06:02;24.00;;;21.50;;
5454;SDS011;2750;49.050;9.250;2023-05-08T06:11:04;24.63;;;20.70;;
5454;SDS011;2750;49.050;9.250;2023-05-08T06:16:06;22.80;;;20.40;;
5454;SDS011;2750;49.050;9.250;2023-05-08T06:21:09;22.30;;;19.97;;
5454;SDS011;2750;49.050;9.250;2023-05-08T06:26:10;23.17;;;20.73;;
5454;SDS011;2750;49.050;9.250;2023-05-08T06:31:12;20.30;;;18.40;;
5454;SDS011;2750;49.050;9.250;2023-05-08T06:36:15;19.93;;;18.00;;
5454;SDS011;2750;49.050;9.250;2023-05-08T06:41:16;20.30;;;18.37;;
5454;SDS011;2750;49.050;9.250;2023-05-08T06:46:17;19.23;;;17.13;;
5454;SDS011;2750;49.050;9.250;2023-05-08T06:51:21;24.03;;;21.53;;
5454;SDS011;2750;49.050;9.250;2023-05-08T06:56:23;22.53;;;20.33;;
5454;SDS011;2750;49.050;9.250;2023-05-08T07:01:25;21.10;;;18.87;;
5454;SDS011;2750;49.050;9.250;2023-05-08T07:06:28;20.57;;;18.47;;
5454;SDS011;2750;49.050;9.250;2023-05-08T07:11:30;21.67;;;19.13;;
5454;SDS011;2750;49.050;9.250;2023-05-08T07:16:32;20.27;;;18.20;;
5454;SDS011;2750;49.050;9.250;2023-05-08T07:21:34;20.87;;;18.63;;
5454;SDS011;2750;49.050;9.250;2023-05-08T07:26:36;18.33;;;15.97;;
5454;SDS011;2750;49.050;9.250;2023-05-08T07:31:38;20.60;;;18.60;;
5454;SDS011;2750;49.050;9.250;2023-05-08T07:36:41;19.07;;;17.17;;
5454;SDS011;2750;49.050;9.250;2023-05-08T07:41:43;18.40;;;16.50;;
5454;SDS011;2750;49.050;9.250;2023-05-08T07:46:44;18.57;;;16.67;;
5454;SDS011;2750;49.050;9.250;2023-05-08T07:51:47;18.00;;;16.07;;
5454;SDS011;2750;49.050;9.250;2023-05-08T07:56:48;19.17;;;17.17;;
5454;SDS011;2750;49.050;9.250;2023-05-08T08:01:50;16.87;;;15.20;;
5454;SDS011;2750;49.050;9.250;2023-05-08T08:06:53;16.33;;;14.83;;
5454;SDS011;2750;49.050;9.250;2023-05-08T08:11:54;15.67;;;14.17;;
5454;SDS011;2750;49.050;9.250;2023-05-08T08:16:56;14.20;;;12.87;;
5454;SDS011;2750;49.050;9.250;2023-05-08T08:21:58;15.67;;;14.07;;
5454;SDS011;2750;49.050;9.250;2023-05-08T08:27:00;14.73;;;13.27;;
5454;SDS011;2750;49.050;9.250;2023-05-08T08:32:02;13.57;;;12.27;;
5454;SDS011;2750;49.050;9.250;2023-05-08T08:37:05;13.93;;;12.57;;
5454;SDS011;2750;49.050;9.250;2023-05-08T08:42:07;15.23;;;13.73;;
5454;SDS011;2750;49.050;9.250;2023-05-08T08:47:09;18.30;;;15.00;;
5454;SDS011;2750;49.050;9.250;2023-05-08T08:52:14;16.17;;;14.43;;
5454;SDS011;2750;49.050;9.250;2023-05-08T08:57:22;16.33;;;14.77;;
5454;SDS011;2750;49.050;9.250;2023-05-08T09:02:26;16.43;;;14.67;;
5454;SDS011;2750;49.050;9.250;2023-05-08T09:07:31;17.33;;;15.60;;
5454;SDS011;2750;49.050;9.250;2023-05-08T09:12:33;17.70;;;16.03;;
5454;SDS011;2750;49.050;9.250;2023-05-08T09:17:35;17.93;;;16.03;;
5454;SDS011;2750;49.050;9.250;2023-05-08T09:22:37;17.63;;;15.83;;
5454;SDS011;2750;49.050;9.250;2023-05-08T09:27:40;17.23;;;14.37;;
5454;SDS011;2750;49.050;9.250;2023-05-08T09:32:42;15.07;;;13.57;;
5454;SDS011;2750;49.050;9.250;2023-05-08T09:37:45;16.30;;;14.67;;
5454;SDS011;2750;49.050;9.250;2023-05-08T09:42:47;14.83;;;13.33;;
5454;SDS011;2750;49.050;9.250;2023-05-08T09:47:49;13.23;;;11.87;;
5454;SDS011;2750;49.050;9.250;2023-05-08T09:52:52;13.13;;;11.93;;
5454;SDS011;2750;49.050;9.250;2023-05-08T09:57:54;15.20;;;13.10;;
5454;SDS011;2750;49.050;9.250;2023-05-08T10:02:58;14.90;;;13.50;;
5454;SDS011;2750;49.050;9.250;2023-05-08T10:13:28;12.77;;;11.63;;
5454;SDS011;2750;49.050;9.250;2023-05-08T10:18:30;14.70;;;13.40;;
5454;SDS011;2750;49.050;9.250;2023-05-08T10:23:35;15.97;;;14.43;;
5454;SDS011;2750;49.050;9.250;2023-05-08T10:28:41;15.37;;;13.73;;
5454;SDS011;2750;49.050;9.250;2023-05-08T10:33:44;15.67;;;13.97;;
5454;SDS011;2750;49.050;9.250;2023-05-08T10:38:50;16.70;;;14.90;;
5454;SDS011;2750;49.050;9.250;2023-05-08T10:43:53;18.27;;;16.47;;
5454;SDS011;2750;49.050;9.250;2023-05-08T10:48:57;16.20;;;14.67;;
5454;SDS011;2750;49.050;9.250;2023-05-08T10:54:04;20.43;;;18.40;;
5454;SDS011;2750;49.050;9.250;2023-05-08T10:59:16;20.53;;;18.33;;
5454;SDS011;2750;49.050;9.250;2023-05-08T11:04:18;24.13;;;20.13;;
5454;SDS011;2750;49.050;9.250;2023-05-08T11:09:21;24.03;;;21.63;;
5454;SDS011;2750;49.050;9.250;2023-05-08T11:14:28;22.87;;;20.63;;
5454;SDS011;2750;49.050;9.250;2023-05-08T11:19:31;21.40;;;19.20;;
5454;SDS011;2750;49.050;9.250;2023-05-08T11:24:33;21.53;;;19.43;;
5454;SDS011;2750;49.050;9.250;2023-05-08T11:29:37;19.27;;;17.40;;
5454;SDS011;2750;49.050;9.250;2023-05-08T11:34:48;19.73;;;17.83;;
5454;SDS011;2750;49.050;9.250;2023-05-08T11:39:49;19.37;;;17.37;;
5454;SDS011;2750;49.050;9.250;2023-05-08T11:44:59;17.27;;;15.60;;
5454;SDS011;2750;49.050;9.250;2023-05-08T11:50:04;17.67;;;16.07;;
5454;SDS011;2750;49.050;9.250;2023-05-08T11:55:07;16.67;;;14.97;;
5454;SDS011;2750;49.050;9.250;2023-05-08T12:00:11;17.17;;;15.57;;
5454;SDS011;2750;49.050;9.250;2023-05-08T12:05:14;15.23;;;13.83;;
5454;SDS011;2750;49.050;9.250;2023-05-08T12:10:15;16.23;;;14.73;;
5454;SDS011;2750;49.050;9.250;2023-05-08T12:15:18;13.43;;;12.00;;
5454;SDS011;2750;49.050;9.250;2023-05-08T12:20:20;14.97;;;13.47;;
5454;SDS011;2750;49.050;9.250;2023-05-08T12:25:21;14.57;;;13.07;;
5454;SDS011;2750;49.050;9.250;2023-05-08T12:30:27;12.93;;;11.73;;
5454;SDS011;2750;49.050;9.250;2023-05-08T12:35:29;15.30;;;13.13;;
5454;SDS011;2750;49.050;9.250;2023-05-08T12:40:31;12.70;;;11.60;;
5454;SDS011;2750;49.050;9.250;2023-05-08T12:45:36;12.33;;;11.13;;
5454;SDS011;2750;49.050;9.250;2023-05-08T12:50:39;15.47;;;12.97;;
5454;SDS011;2750;49.050;9.250;2023-05-08T12:55:49;14.47;;;13.00;;
5454;SDS011;2750;49.050;9.250;2023-05-08T13:00:53;13.77;;;12.47;;
5454;SDS011;2750;49.050;9.250;2023-05-08T13:06:04;14.50;;;12.93;;
5454;SDS011;2750;49.050;9.250;2023-05-08T13:11:06;12.83;;;11.37;;
5454;SDS011;2750;49.050;9.250;2023-05-08T13:16:09;13.60;;;12.43;;
5454;SDS011;2750;49.050;9.250;2023-05-08T13:21:11;17.20;;;15.50;;
5454;SDS011;2750;49.050;9.250;2023-05-08T13:26:12;18.00;;;16.30;;
5454;SDS011;2750;49.050;9.250;2023-05-08T13:31:15;18.10;;;16.17;;
5454;SDS011;2750;49.050;9.250;2023-05-08T13:36:16;21.60;;;16.67;;
5454;SDS011;2750;49.050;9.250;2023-05-08T13:41:19;18.40;;;16.47;;
5454;SDS011;2750;49.050;9.250;2023-05-08T13:46:22;17.10;;;15.40;;
5454;SDS011;2750;49.050;9.250;2023-05-08T13:51:24;11.90;;;10.80;;
5454;SDS011;2750;49.050;9.250;2023-05-08T13:56:25;11.67;;;10.67;;
5454;SDS011;2750;49.050;9.250;2023-05-08T14:01:28;13.07;;;11.57;;
5454;SDS011;2750;49.050;9.250;2023-05-08T14:06:29;13.53;;;12.33;;
5454;SDS011;2750;49.050;9.250;2023-05-08T14:11:31;12.80;;;11.47;;
5454;SDS011;2750;49.050;9.250;2023-05-08T14:16:34;13.53;;;12.33;;
5454;SDS011;2750;49.050;9.250;2023-05-08T14:21:35;13.00;;;11.73;;
5454;SDS011;2750;49.050;9.250;2023-05-08T14:26:37;11.27;;;10.17;;
5454;SDS011;2750;49.050;9.250;2023-05-08T14:31:40;9.90;;;9.00;;
5454;SDS011;2750;49.050;9.250;2023-05-08T14:36:41;11.40;;;10.17;;
5454;SDS011;2750;49.050;9.250;2023-05-08T14:41:43;8.67;;;7.97;;
5454;SDS011;2750;49.050;9.250;2023-05-08T14:46:45;9.83;;;8.50;;
5454;SDS011;2750;49.050;9.250;2023-05-08T14:51:47;9.97;;;9.07;;
5454;SDS011;2750;49.050;9.250;2023-05-08T14:56:48;9.37;;;8.43;;
5454;SDS011;2750;49.050;9.250;2023-05-08T15:01:51;9.83;;;8.17;;
5454;SDS011;2750;49.050;9.250;2023-05-08T15:06:52;9.53;;;8.60;;
5454;SDS011;2750;49.050;9.250;2023-05-08T15:11:54;9.00;;;8.20;;
5454;SDS011;2750;49.050;9.250;2023-05-08T15:16:57;8.23;;;7.43;;
5454;SDS011;2750;49.050;9.250;2023-05-08T15:21:58;9.10;;;7.63;;
5454;SDS011;2750;49.050;9.250;2023-05-08T15:27:00;7.57;;;7.05;;
5454;SDS011;2750;49.050;9.250;2023-05-08T15:32:02;9.00;;;7.43;;
5454;SDS011;2750;49.050;9.250;2023-05-08T15:37:04;8.13;;;7.32;;
5454;SDS011;2750;49.050;9.250;2023-05-08T15:42:06;8.17;;;7.47;;
5454;SDS011;2750;49.050;9.250;2023-05-08T15:47:08;7.97;;;7.33;;
5454;SDS011;2750;49.050;9.250;2023-05-08T15:52:10;8.37;;;7.60;;
5454;SDS011;2750;49.050;9.250;2023-05-08T15:57:14;9.03;;;8.23;;
5454;SDS011;2750;49.050;9.250;2023-05-08T16:02:17;10.80;;;7.53;;
5454;SDS011;2750;49.050;9.250;2023-05-08T16:07:18;7.80;;;7.20;;
5454;SDS011;2750;49.050;9.250;2023-05-08T16:12:20;12.47;;;8.27;;
5454;SDS011;2750;49.050;9.250;2023-05-08T16:17:23;13.13;;;8.20;;
5454;SDS011;2750;49.050;9.250;2023-05-08T16:22:24;15.73;;;9.63;;
5454;SDS011;2750;49.050;9.250;2023-05-08T16:27:26;9.63;;;8.07;;
5454;SDS011;2750;49.050;9.250;2023-05-08T16:32:29;8.40;;;7.70;;
5454;SDS011;2750;49.050;9.250;2023-05-08T16:37:31;8.43;;;7.65;;
5454;SDS011;2750;49.050;9.250;2023-05-08T16:42:33;9.13;;;8.40;;
5454;SDS011;2750;49.050;9.250;2023-05-08T16:47:35;11.02;;;10.02;;
5454;SDS011;2750;49.050;9.250;2023-05-08T16:52:37;12.67;;;11.47;;
5454;SDS011;2750;49.050;9.250;2023-05-08T16:57:38;11.47;;;10.30;;
5454;SDS011;2750;49.050;9.250;2023-05-08T17:02:41;9.85;;;8.95;;
5454;SDS011;2750;49.050;9.250;2023-05-08T17:07:43;9.40;;;8.60;;
5454;SDS011;2750;49.050;9.250;2023-05-08T17:12:44;9.33;;;8.50;;
5454;SDS011;2750;49.050;9.250;2023-05-08T17:17:47;11.37;;;10.47;;
5454;SDS011;2750;49.050;9.250;2023-05-08T17:22:51;12.50;;;11.23;;
5454;SDS011;2750;49.050;9.250;2023-05-08T17:27:52;12.73;;;11.17;;
5454;SDS011;2750;49.050;9.250;2023-05-08T17:32:56;9.20;;;8.40;;
5454;SDS011;2750;49.050;9.250;2023-05-08T17:37:58;11.40;;;10.40;;
5454;SDS011;2750;49.050;9.250;2023-05-08T17:42:59;14.80;;;13.40;;
5454;SDS011;2750;49.050;9.250;2023-05-08T17:48:02;15.43;;;11.10;;
5454;SDS011;2750;49.050;9.250;2023-05-08T17:53:04;10.77;;;9.60;;
5454;SDS011;2750;49.050;9.250;2023-05-08T17:58:05;10.90;;;9.80;;
5454;SDS011;2750;49.050;9.250;2023-05-08T18:03:08;10.97;;;9.87;;
5454;SDS011;2750;49.050;9.250;2023-05-08T18:08:10;16.00;;;14.13;;
5454;SDS011;2750;49.050;9.250;2023-05-08T18:13:12;10.27;;;9.27;;
5454;SDS011;2750;49.050;9.250;2023-05-08T18:18:15;9.60;;;8.70;;
5454;SDS011;2750;49.050;9.250;2023-05-08T18:23:16;11.83;;;9.77;;
5454;SDS011;2750;49.050;9.250;2023-05-08T18:28:18;11.03;;;9.87;;
5454;SDS011;2750;49.050;9.250;2023-05-08T18:33:21;11.00;;;9.93;;
5454;SDS011;2750;49.050;9.250;2023-05-08T18:38:22;10.70;;;9.67;;
5454;SDS011;2750;49.050;9.250;2023-05-08T18:43:24;11.37;;;9.60;;
5454;SDS011;2750;49.050;9.250;2023-05-08T18:48:27;11.33;;;10.23;;
5454;SDS011;2750;49.050;9.250;2023-05-08T18:53:29;10.10;;;9.17;;
5454;SDS011;2750;49.050;9.250;2023-05-08T18:58:30;11.27;;;10.33;;
5454;SDS011;2750;49.050;9.250;2023-05-08T19:03:33;13.03;;;10.00;;
5454;SDS011;2750;49.050;9.250;2023-05-08T19:08:35;11.63;;;10.63;;
5454;SDS011;2750;49.050;9.250;2023-05-08T19:13:36;11.60;;;10.40;;
5454;SDS011;2750;49.050;9.250;2023-05-08T19:18:40;10.57;;;9.47;;
5454;SDS011;2750;49.050;9.250;2023-05-08T19:23:42;10.80;;;9.70;;
5454;SDS011;2750;49.050;9.250;2023-05-08T19:28:43;10.63;;;9.63;;
5454;SDS011;2750;49.050;9.250;2023-05-08T19:33:46;12.03;;;10.03;;
5454;SDS011;2750;49.050;9.250;2023-05-08T19:38:48;12.03;;;10.93;;
5454;SDS011;2750;49.050;9.250;2023-05-08T19:43:49;11.70;;;10.60;;
5454;SDS011;2750;49.050;9.250;2023-05-08T19:48:52;13.77;;;12.37;;
5454;SDS011;2750;49.050;9.250;2023-05-08T19:53:54;13.70;;;12.20;;
5454;SDS011;2750;49.050;9.250;2023-05-08T19:58:55;13.47;;;12.17;;
5454;SDS011;2750;49.050;9.250;2023-05-08T20:03:58;14.17;;;12.87;;
5454;SDS011;2750;49.050;9.250;2023-05-08T20:08:59;13.10;;;11.73;;
5454;SDS011;2750;49.050;9.250;2023-05-08T20:14:01;13.43;;;12.13;;
5454;SDS011;2750;49.050;9.250;2023-05-08T20:19:04;14.50;;;13.07;;
5454;SDS011;2750;49.050;9.250;2023-05-08T20:24:05;14.63;;;13.30;;
5454;SDS011;2750;49.050;9.250;2023-05-08T20:29:07;14.67;;;13.23;;
5454;SDS011;2750;49.050;9.250;2023-05-08T20:34:10;14.70;;;13.30;;
5454;SDS011;2750;49.050;9.250;2023-05-08T20:39:12;14.63;;;12.10;;
5454;SDS011;2750;49.050;9.250;2023-05-08T20:44:14;13.97;;;12.67;;
5454;SDS011;2750;49.050;9.250;2023-05-08T20:49:19;15.60;;;13.97;;
5454;SDS011;2750;49.050;9.250;2023-05-08T20:54:20;15.83;;;14.23;;
5454;SDS011;2750;49.050;9.250;2023-05-08T20:59:22;18.27;;;16.47;;
5454;SDS011;2750;49.050;9.250;2023-05-08T21:04:25;16.40;;;14.80;;
5454;SDS011;2750;49.050;9.250;2023-05-08T21:09:26;17.60;;;15.70;;
5454;SDS011;2750;49.050;9.250;2023-05-08T21:14:28;20.60;;;18.40;;
5454;SDS011;2750;49.050;9.250;2023-05-08T21:19:31;21.77;;;18.77;;
5454;SDS011;2750;49.050;9.250;2023-05-08T21:24:32;22.43;;;19.73;;
5454;SDS011;2750;49.050;9.250;2023-05-08T21:29:34;20.43;;;18.30;;
5454;SDS011;2750;49.050;9.250;2023-05-08T21:34:37;19.57;;;17.00;;
5454;SDS011;2750;49.050;9.250;2023-05-08T21:39:39;20.53;;;18.53;;
5454;SDS011;2750;49.050;9.250;2023-05-08T21:44:40;20.30;;;18.23;;
5454;SDS011;2750;49.050;9.250;2023-05-08T21:49:43;20.43;;;17.10;;
5454;SDS011;2750;49.050;9.250;2023-05-08T21:54:44;21.83;;;19.57;;
5454;SDS011;2750;49.050;9.250;2023-05-08T21:59:46;22.40;;;20.03;;
5454;SDS011;2750;49.050;9.250;2023-05-08T22:04:49;22.33;;;20.03;;
5454;SDS011;2750;49.050;9.250;2023-05-08T22:09:50;23.73;;;21.20;;
5454;SDS011;2750;49.050;9.250;2023-05-08T22:14:52;23.97;;;19.90;;
5454;SDS011;2750;49.050;9.250;2023-05-08T22:19:55;21.40;;;18.00;;
5454;SDS011;2750;49.050;9.250;2023-05-08T22:24:56;22.50;;;19.57;;
5454;SDS011;2750;49.050;9.250;2023-05-08T22:29:58;21.17;;;19.07;;
5454;SDS011;2750;49.050;9.250;2023-05-08T22:35:01;20.57;;;18.37;;
5454;SDS011;2750;49.050;9.250;2023-05-08T22:40:03;23.33;;;19.87;;
5454;SDS011;2750;49.050;9.250;2023-05-08T22:45:05;25.53;;;19.40;;
5454;SDS011;2750;49.050;9.250;2023-05-08T22:50:09;22.03;;;19.83;;
5454;SDS011;2750;49.050;9.250;2023-05-08T22:55:11;23.93;;;21.40;;
5454;SDS011;2750;49.050;9.250;2023-05-08T23:00:14;25.87;;;20.43;;
5454;SDS011;2750;49.050;9.250;2023-05-08T23:05:17;23.03;;;20.60;;
5454;SDS011;2750;49.050;9.250;2023-05-08T23:10:19;27.00;;;22.63;;
5454;SDS011;2750;49.050;9.250;2023-05-08T23:15:20;25.97;;;20.27;;
5454;SDS011;2750;49.050;9.250;2023-05-08T23:20:23;24.70;;;21.13;;
5454;SDS011;2750;49.050;9.250;2023-05-08T23:25:24;29.33;;;22.10;;
5454;SDS011;2750;49.050;9.250;2023-05-08T23:30:26;26.63;;;23.80;;
5454;SDS011;2750;49.050;9.250;2023-05-08T23:35:29;28.50;;;24.13;;
5454;SDS011;2750;49.050;9.250;2023-05-08T23:40:30;26.13;;;22.33;;
5454;SDS011;2750;49.050;9.250;2023-05-08T23:45:32;30.37;;;25.00;;
5454;SDS011;2750;49.050;9.250;2023-05-08T23:50:35;30.53;;;25.97;;
5454;SDS011;2750;49.050;9.250;2023-05-08T23:55:36;33.57;;;28.00;;
